sensor_id;sensor_type;location;lat;lon;timestamp;P1;durP1;ratioP1;P2;durP2;ratioP2
57231;SDS011;43488;46.934;8.276;2022-07-29T00:01:06;676.85;;;369.05;;
57231;SDS011;43488;46.934;8.276;2022-07-29T00:03:34;668.25;;;357.15;;
57231;SDS011;43488;46.934;8.276;2022-07-29T00:06:01;676.25;;;366.48;;
57231;SDS011;43488;46.934;8.276;2022-07-29T00:08:28;680.40;;;437.83;;
57231;SDS011;43488;46.934;8.276;2022-07-29T00:10:55;671.13;;;365.17;;
57231;SDS011;43488;46.934;8.276;2022-07-29T00:13:23;680.20;;;425.17;;
57231;SDS011;43488;46.934;8.276;2022-07-29T00:15:50;678.10;;;440.63;;
57231;SDS011;43488;46.934;8.276;2022-07-29T00:18:17;676.60;;;366.65;;
57231;SDS011;43488;46.934;8.276;2022-07-29T00:20:45;678.78;;;446.33;;
57231;SDS011;43488;46.934;8.276;2022-07-29T00:23:12;679.03;;;428.05;;
57231;SDS011;43488;46.934;8.276;2022-07-29T00:25:39;668.83;;;364.55;;
57231;SDS011;43488;46.934;8.276;2022-07-29T00:28:07;681.70;;;442.77;;
57231;SDS011;43488;46.934;8.276;2022-07-29T00:30:34;666.17;;;360.58;;
57231;SDS011;43488;46.934;8.276;2022-07-29T00:33:01;662.88;;;353.27;;
57231;SDS011;43488;46.934;8.276;2022-07-29T00:35:28;671.45;;;365.38;;
57231;SDS011;43488;46.934;8.276;2022-07-29T00:38:15;672.13;;;435.08;;
57231;SDS011;43488;46.934;8.276;2022-07-29T00:40:45;663.83;;;365.52;;
57231;SDS011;43488;46.934;8.276;2022-07-29T00:43:14;665.47;;;362.63;;
57231;SDS011;43488;46.934;8.276;2022-07-29T00:45:43;669.63;;;440.38;;
57231;SDS011;43488;46.934;8.276;2022-07-29T00:48:10;666.80;;;424.75;;
57231;SDS011;43488;46.934;8.276;2022-07-29T00:50:37;667.28;;;438.10;;
57231;SDS011;43488;46.934;8.276;2022-07-29T00:53:06;667.17;;;424.90;;
57231;SDS011;43488;46.934;8.276;2022-07-29T00:55:34;668.72;;;436.45;;
57231;SDS011;43488;46.934;8.276;2022-07-29T00:58:03;665.42;;;361.55;;
57231;SDS011;43488;46.934;8.276;2022-07-29T01:00:31;664.35;;;361.38;;
57231;SDS011;43488;46.934;8.276;2022-07-29T01:02:58;666.53;;;357.80;;
57231;SDS011;43488;46.934;8.276;2022-07-29T01:05:26;672.28;;;436.98;;
57231;SDS011;43488;46.934;8.276;2022-07-29T01:07:55;660.13;;;356.60;;
57231;SDS011;43488;46.934;8.276;2022-07-29T01:10:25;670.65;;;438.90;;
57231;SDS011;43488;46.934;8.276;2022-07-29T01:12:57;673.80;;;428.75;;
57231;SDS011;43488;46.934;8.276;2022-07-29T01:15:26;677.67;;;441.07;;
57231;SDS011;43488;46.934;8.276;2022-07-29T01:18:00;674.28;;;434.67;;
57231;SDS011;43488;46.934;8.276;2022-07-29T01:21:00;672.83;;;439.20;;
57231;SDS011;43488;46.934;8.276;2022-07-29T01:26:48;665.70;;;363.05;;
57231;SDS011;43488;46.934;8.276;2022-07-29T01:29:33;661.75;;;357.08;;
57231;SDS011;43488;46.934;8.276;2022-07-29T01:32:15;669.67;;;434.85;;
57231;SDS011;43488;46.934;8.276;2022-07-29T01:34:50;668.53;;;433.48;;
57231;SDS011;43488;46.934;8.276;2022-07-29T01:37:48;669.85;;;431.73;;
57231;SDS011;43488;46.934;8.276;2022-07-29T01:40:44;669.17;;;428.88;;
57231;SDS011;43488;46.934;8.276;2022-07-29T01:43:30;668.00;;;366.70;;
57231;SDS011;43488;46.934;8.276;2022-07-29T01:46:18;660.90;;;354.40;;
57231;SDS011;43488;46.934;8.276;2022-07-29T01:48:55;670.15;;;432.30;;
57231;SDS011;43488;46.934;8.276;2022-07-29T01:51:58;667.72;;;356.70;;
57231;SDS011;43488;46.934;8.276;2022-07-29T01:55:13;672.60;;;437.05;;
57231;SDS011;43488;46.934;8.276;2022-07-29T01:57:38;672.40;;;428.27;;
57231;SDS011;43488;46.934;8.276;2022-07-29T02:00:11;666.10;;;358.70;;
57231;SDS011;43488;46.934;8.276;2022-07-29T02:02:41;672.30;;;432.80;;
57231;SDS011;43488;46.934;8.276;2022-07-29T02:05:14;669.92;;;434.55;;
57231;SDS011;43488;46.934;8.276;2022-07-29T02:10:12;671.00;;;424.63;;
57231;SDS011;43488;46.934;8.276;2022-07-29T02:12:42;662.80;;;353.45;;
57231;SDS011;43488;46.934;8.276;2022-07-29T02:15:12;670.40;;;431.58;;
57231;SDS011;43488;46.934;8.276;2022-07-29T02:17:42;667.95;;;424.35;;
57231;SDS011;43488;46.934;8.276;2022-07-29T02:20:16;661.40;;;355.63;;
57231;SDS011;43488;46.934;8.276;2022-07-29T02:22:43;671.65;;;429.30;;
57231;SDS011;43488;46.934;8.276;2022-07-29T02:25:13;662.63;;;355.88;;
57231;SDS011;43488;46.934;8.276;2022-07-29T02:27:41;664.20;;;355.70;;
57231;SDS011;43488;46.934;8.276;2022-07-29T02:30:10;670.58;;;430.30;;
57231;SDS011;43488;46.934;8.276;2022-07-29T02:32:39;673.63;;;430.88;;
57231;SDS011;43488;46.934;8.276;2022-07-29T02:35:10;679.13;;;440.97;;
57231;SDS011;43488;46.934;8.276;2022-07-29T02:37:41;664.22;;;349.58;;
57231;SDS011;43488;46.934;8.276;2022-07-29T02:40:11;668.97;;;362.85;;
57231;SDS011;43488;46.934;8.276;2022-07-29T02:42:42;675.33;;;434.15;;
57231;SDS011;43488;46.934;8.276;2022-07-29T02:45:12;671.90;;;432.42;;
57231;SDS011;43488;46.934;8.276;2022-07-29T02:47:41;672.10;;;362.08;;
57231;SDS011;43488;46.934;8.276;2022-07-29T02:50:15;664.22;;;356.58;;
57231;SDS011;43488;46.934;8.276;2022-07-29T02:53:11;675.55;;;434.13;;
57231;SDS011;43488;46.934;8.276;2022-07-29T02:55:45;668.75;;;355.90;;
57231;SDS011;43488;46.934;8.276;2022-07-29T02:58:30;664.60;;;350.05;;
57231;SDS011;43488;46.934;8.276;2022-07-29T03:01:16;670.85;;;359.38;;
57231;SDS011;43488;46.934;8.276;2022-07-29T03:03:51;678.25;;;431.10;;
57231;SDS011;43488;46.934;8.276;2022-07-29T03:06:22;675.60;;;432.77;;
57231;SDS011;43488;46.934;8.276;2022-07-29T03:08:52;675.17;;;427.67;;
57231;SDS011;43488;46.934;8.276;2022-07-29T03:11:21;671.72;;;425.23;;
57231;SDS011;43488;46.934;8.276;2022-07-29T03:13:49;668.42;;;349.35;;
57231;SDS011;43488;46.934;8.276;2022-07-29T03:16:18;672.45;;;364.38;;
57231;SDS011;43488;46.934;8.276;2022-07-29T03:18:46;675.38;;;427.25;;
57231;SDS011;43488;46.934;8.276;2022-07-29T03:21:14;666.78;;;359.88;;
57231;SDS011;43488;46.934;8.276;2022-07-29T03:23:45;676.00;;;429.77;;
57231;SDS011;43488;46.934;8.276;2022-07-29T03:26:13;681.60;;;437.00;;
57231;SDS011;43488;46.934;8.276;2022-07-29T03:28:40;663.70;;;346.90;;
57231;SDS011;43488;46.934;8.276;2022-07-29T03:31:08;673.00;;;430.30;;
57231;SDS011;43488;46.934;8.276;2022-07-29T03:33:35;675.88;;;430.17;;
57231;SDS011;43488;46.934;8.276;2022-07-29T03:36:02;674.65;;;432.50;;
57231;SDS011;43488;46.934;8.276;2022-07-29T03:38:30;665.47;;;350.88;;
57231;SDS011;43488;46.934;8.276;2022-07-29T03:41:04;671.28;;;359.90;;
57231;SDS011;43488;46.934;8.276;2022-07-29T03:43:37;666.72;;;356.45;;
57231;SDS011;43488;46.934;8.276;2022-07-29T03:46:07;680.08;;;437.77;;
57231;SDS011;43488;46.934;8.276;2022-07-29T03:48:39;679.67;;;429.10;;
57231;SDS011;43488;46.934;8.276;2022-07-29T03:51:12;676.33;;;366.58;;
57231;SDS011;43488;46.934;8.276;2022-07-29T03:53:40;676.97;;;431.52;;
57231;SDS011;43488;46.934;8.276;2022-07-29T03:56:08;671.17;;;363.65;;
57231;SDS011;43488;46.934;8.276;2022-07-29T03:58:41;674.38;;;354.25;;
57231;SDS011;43488;46.934;8.276;2022-07-29T04:01:08;678.78;;;433.88;;
57231;SDS011;43488;46.934;8.276;2022-07-29T04:03:37;670.72;;;363.27;;
57231;SDS011;43488;46.934;8.276;2022-07-29T04:06:06;680.60;;;436.75;;
57231;SDS011;43488;46.934;8.276;2022-07-29T04:08:34;680.38;;;425.42;;
57231;SDS011;43488;46.934;8.276;2022-07-29T04:11:02;676.50;;;366.58;;
57231;SDS011;43488;46.934;8.276;2022-07-29T04:13:32;677.85;;;433.85;;
57231;SDS011;43488;46.934;8.276;2022-07-29T04:15:59;677.60;;;437.02;;
57231;SDS011;43488;46.934;8.276;2022-07-29T04:18:28;678.42;;;426.95;;
57231;SDS011;43488;46.934;8.276;2022-07-29T04:20:55;669.08;;;358.40;;
57231;SDS011;43488;46.934;8.276;2022-07-29T04:23:22;680.67;;;438.65;;
57231;SDS011;43488;46.934;8.276;2022-07-29T04:25:50;691.60;;;470.83;;
57231;SDS011;43488;46.934;8.276;2022-07-29T04:28:19;668.53;;;352.77;;
57231;SDS011;43488;46.934;8.276;2022-07-29T04:30:47;674.88;;;427.55;;
57231;SDS011;43488;46.934;8.276;2022-07-29T04:33:15;668.78;;;354.45;;
57231;SDS011;43488;46.934;8.276;2022-07-29T04:35:43;676.55;;;434.02;;
57231;SDS011;43488;46.934;8.276;2022-07-29T04:38:11;670.00;;;355.48;;
57231;SDS011;43488;46.934;8.276;2022-07-29T04:40:38;676.00;;;365.15;;
57231;SDS011;43488;46.934;8.276;2022-07-29T04:43:06;674.97;;;357.90;;
57231;SDS011;43488;46.934;8.276;2022-07-29T04:45:33;675.38;;;366.42;;
57231;SDS011;43488;46.934;8.276;2022-07-29T04:48:00;682.03;;;429.35;;
57231;SDS011;43488;46.934;8.276;2022-07-29T04:50:27;670.10;;;357.50;;
57231;SDS011;43488;46.934;8.276;2022-07-29T04:52:55;671.47;;;358.17;;
57231;SDS011;43488;46.934;8.276;2022-07-29T04:55:22;674.53;;;369.13;;
57231;SDS011;43488;46.934;8.276;2022-07-29T04:57:49;684.10;;;433.00;;
57231;SDS011;43488;46.934;8.276;2022-07-29T05:00:17;680.80;;;430.65;;
57231;SDS011;43488;46.934;8.276;2022-07-29T05:02:44;683.97;;;435.58;;
57231;SDS011;43488;46.934;8.276;2022-07-29T05:05:11;683.22;;;436.85;;
57231;SDS011;43488;46.934;8.276;2022-07-29T05:07:39;673.42;;;358.42;;
57231;SDS011;43488;46.934;8.276;2022-07-29T05:10:07;683.63;;;435.88;;
57231;SDS011;43488;46.934;8.276;2022-07-29T05:12:35;673.72;;;361.77;;
57231;SDS011;43488;46.934;8.276;2022-07-29T05:15:02;677.83;;;364.00;;
57231;SDS011;43488;46.934;8.276;2022-07-29T05:17:30;672.40;;;355.40;;
57231;SDS011;43488;46.934;8.276;2022-07-29T05:19:57;679.80;;;432.75;;
57231;SDS011;43488;46.934;8.276;2022-07-29T05:22:24;681.80;;;435.15;;
57231;SDS011;43488;46.934;8.276;2022-07-29T05:24:52;684.33;;;442.10;;
57231;SDS011;43488;46.934;8.276;2022-07-29T05:27:19;681.88;;;426.38;;
57231;SDS011;43488;46.934;8.276;2022-07-29T05:29:47;672.60;;;359.05;;
57231;SDS011;43488;46.934;8.276;2022-07-29T05:32:14;672.55;;;356.05;;
57231;SDS011;43488;46.934;8.276;2022-07-29T05:34:41;686.10;;;435.77;;
57231;SDS011;43488;46.934;8.276;2022-07-29T05:37:08;683.20;;;430.50;;
57231;SDS011;43488;46.934;8.276;2022-07-29T05:39:36;685.55;;;435.23;;
57231;SDS011;43488;46.934;8.276;2022-07-29T05:42:07;675.10;;;359.58;;
57231;SDS011;43488;46.934;8.276;2022-07-29T05:44:37;686.70;;;442.83;;
57231;SDS011;43488;46.934;8.276;2022-07-29T05:47:06;688.67;;;434.13;;
57231;SDS011;43488;46.934;8.276;2022-07-29T05:49:34;683.92;;;429.45;;
57231;SDS011;43488;46.934;8.276;2022-07-29T05:52:01;690.90;;;443.35;;
57231;SDS011;43488;46.934;8.276;2022-07-29T05:54:28;682.80;;;370.90;;
57231;SDS011;43488;46.934;8.276;2022-07-29T05:56:56;680.60;;;359.30;;
57231;SDS011;43488;46.934;8.276;2022-07-29T05:59:24;689.40;;;435.08;;
57231;SDS011;43488;46.934;8.276;2022-07-29T06:01:51;679.08;;;368.50;;
57231;SDS011;43488;46.934;8.276;2022-07-29T06:04:19;687.80;;;432.90;;
57231;SDS011;43488;46.934;8.276;2022-07-29T06:06:47;687.25;;;424.48;;
57231;SDS011;43488;46.934;8.276;2022-07-29T06:09:15;691.05;;;444.95;;
57231;SDS011;43488;46.934;8.276;2022-07-29T06:11:43;680.17;;;368.00;;
57231;SDS011;43488;46.934;8.276;2022-07-29T06:14:10;679.58;;;368.20;;
57231;SDS011;43488;46.934;8.276;2022-07-29T06:16:38;690.45;;;428.13;;
57231;SDS011;43488;46.934;8.276;2022-07-29T06:19:05;679.33;;;371.08;;
57231;SDS011;43488;46.934;8.276;2022-07-29T06:21:33;687.90;;;425.80;;
57231;SDS011;43488;46.934;8.276;2022-07-29T06:24:01;692.22;;;437.55;;
57231;SDS011;43488;46.934;8.276;2022-07-29T06:26:29;676.97;;;360.27;;
57231;SDS011;43488;46.934;8.276;2022-07-29T06:28:57;689.33;;;432.65;;
57231;SDS011;43488;46.934;8.276;2022-07-29T06:31:25;675.22;;;358.95;;
57231;SDS011;43488;46.934;8.276;2022-07-29T06:33:52;692.63;;;438.30;;
57231;SDS011;43488;46.934;8.276;2022-07-29T06:36:19;684.97;;;371.15;;
57231;SDS011;43488;46.934;8.276;2022-07-29T06:38:47;676.90;;;366.08;;
57231;SDS011;43488;46.934;8.276;2022-07-29T06:41:15;678.53;;;364.67;;
57231;SDS011;43488;46.934;8.276;2022-07-29T06:43:43;682.40;;;377.73;;
57231;SDS011;43488;46.934;8.276;2022-07-29T06:46:13;690.25;;;435.02;;
57231;SDS011;43488;46.934;8.276;2022-07-29T06:51:11;690.03;;;424.75;;
57231;SDS011;43488;46.934;8.276;2022-07-29T06:53:39;682.00;;;377.08;;
57231;SDS011;43488;46.934;8.276;2022-07-29T06:56:07;687.40;;;371.42;;
57231;SDS011;43488;46.934;8.276;2022-07-29T06:58:35;692.42;;;443.27;;
57231;SDS011;43488;46.934;8.276;2022-07-29T07:01:03;681.53;;;372.25;;
57231;SDS011;43488;46.934;8.276;2022-07-29T07:03:33;692.63;;;443.13;;
57231;SDS011;43488;46.934;8.276;2022-07-29T07:06:01;681.08;;;369.80;;
57231;SDS011;43488;46.934;8.276;2022-07-29T07:08:29;682.15;;;377.52;;
57231;SDS011;43488;46.934;8.276;2022-07-29T07:10:56;697.17;;;444.85;;
57231;SDS011;43488;46.934;8.276;2022-07-29T07:13:24;683.05;;;377.50;;
57231;SDS011;43488;46.934;8.276;2022-07-29T07:15:51;699.95;;;448.70;;
57231;SDS011;43488;46.934;8.276;2022-07-29T07:18:19;695.13;;;446.05;;
57231;SDS011;43488;46.934;8.276;2022-07-29T07:20:46;694.25;;;443.45;;
57231;SDS011;43488;46.934;8.276;2022-07-29T07:23:14;695.22;;;449.48;;
57231;SDS011;43488;46.934;8.276;2022-07-29T07:25:41;696.10;;;443.42;;
57231;SDS011;43488;46.934;8.276;2022-07-29T07:28:09;695.45;;;448.02;;
57231;SDS011;43488;46.934;8.276;2022-07-29T07:30:36;689.95;;;382.60;;
57231;SDS011;43488;46.934;8.276;2022-07-29T07:33:03;691.20;;;387.20;;
57231;SDS011;43488;46.934;8.276;2022-07-29T07:35:31;687.10;;;378.55;;
57231;SDS011;43488;46.934;8.276;2022-07-29T07:37:58;696.75;;;452.50;;
57231;SDS011;43488;46.934;8.276;2022-07-29T07:40:26;698.25;;;450.52;;
57231;SDS011;43488;46.934;8.276;2022-07-29T07:42:54;696.00;;;447.52;;
57231;SDS011;43488;46.934;8.276;2022-07-29T07:45:21;690.58;;;380.48;;
57231;SDS011;43488;46.934;8.276;2022-07-29T07:47:48;698.75;;;453.88;;
57231;SDS011;43488;46.934;8.276;2022-07-29T07:50:16;699.17;;;449.55;;
57231;SDS011;43488;46.934;8.276;2022-07-29T07:52:47;692.90;;;391.25;;
57231;SDS011;43488;46.934;8.276;2022-07-29T07:55:19;688.03;;;380.67;;
57231;SDS011;43488;46.934;8.276;2022-07-29T07:57:47;686.10;;;382.80;;
57231;SDS011;43488;46.934;8.276;2022-07-29T08:00:14;700.15;;;453.42;;
57231;SDS011;43488;46.934;8.276;2022-07-29T08:02:43;699.00;;;456.55;;
57231;SDS011;43488;46.934;8.276;2022-07-29T08:05:13;698.25;;;449.40;;
57231;SDS011;43488;46.934;8.276;2022-07-29T08:07:44;698.13;;;453.25;;
57231;SDS011;43488;46.934;8.276;2022-07-29T08:10:13;701.97;;;459.10;;
57231;SDS011;43488;46.934;8.276;2022-07-29T08:13:03;699.40;;;455.27;;
57231;SDS011;43488;46.934;8.276;2022-07-29T08:15:35;701.85;;;452.02;;
57231;SDS011;43488;46.934;8.276;2022-07-29T08:18:02;699.13;;;452.65;;
57231;SDS011;43488;46.934;8.276;2022-07-29T08:20:29;699.47;;;451.85;;
57231;SDS011;43488;46.934;8.276;2022-07-29T08:22:59;699.33;;;458.80;;
57231;SDS011;43488;46.934;8.276;2022-07-29T08:25:27;700.38;;;453.42;;
57231;SDS011;43488;46.934;8.276;2022-07-29T08:27:54;685.17;;;384.00;;
57231;SDS011;43488;46.934;8.276;2022-07-29T08:30:22;700.38;;;456.80;;
57231;SDS011;43488;46.934;8.276;2022-07-29T08:32:49;702.20;;;462.42;;
57231;SDS011;43488;46.934;8.276;2022-07-29T08:35:20;702.95;;;456.77;;
57231;SDS011;43488;46.934;8.276;2022-07-29T08:37:49;698.30;;;453.92;;
57231;SDS011;43488;46.934;8.276;2022-07-29T08:40:17;700.83;;;456.05;;
57231;SDS011;43488;46.934;8.276;2022-07-29T08:42:47;701.47;;;455.40;;
57231;SDS011;43488;46.934;8.276;2022-07-29T08:45:14;700.03;;;453.88;;
57231;SDS011;43488;46.934;8.276;2022-07-29T08:47:44;700.08;;;460.27;;
57231;SDS011;43488;46.934;8.276;2022-07-29T08:50:12;702.85;;;460.83;;
57231;SDS011;43488;46.934;8.276;2022-07-29T08:52:40;701.25;;;463.92;;
57231;SDS011;43488;46.934;8.276;2022-07-29T08:55:08;694.10;;;393.23;;
57231;SDS011;43488;46.934;8.276;2022-07-29T08:57:38;690.88;;;404.67;;
57231;SDS011;43488;46.934;8.276;2022-07-29T09:00:07;686.30;;;387.50;;
57231;SDS011;43488;46.934;8.276;2022-07-29T09:02:40;701.03;;;468.38;;
57231;SDS011;43488;46.934;8.276;2022-07-29T09:05:14;703.58;;;446.85;;
57231;SDS011;43488;46.934;8.276;2022-07-29T09:07:41;693.35;;;398.88;;
57231;SDS011;43488;46.934;8.276;2022-07-29T09:10:10;705.38;;;471.60;;
57231;SDS011;43488;46.934;8.276;2022-07-29T09:12:38;703.85;;;454.35;;
57231;SDS011;43488;46.934;8.276;2022-07-29T09:15:06;701.40;;;462.48;;
57231;SDS011;43488;46.934;8.276;2022-07-29T09:17:44;700.60;;;456.30;;
57231;SDS011;43488;46.934;8.276;2022-07-29T09:20:15;706.53;;;452.80;;
57231;SDS011;43488;46.934;8.276;2022-07-29T09:22:46;694.15;;;407.70;;
57231;SDS011;43488;46.934;8.276;2022-07-29T09:25:36;695.58;;;400.00;;
57231;SDS011;43488;46.934;8.276;2022-07-29T09:28:11;698.40;;;407.95;;
57231;SDS011;43488;46.934;8.276;2022-07-29T09:30:50;703.30;;;470.23;;
57231;SDS011;43488;46.934;8.276;2022-07-29T09:33:20;690.58;;;404.10;;
57231;SDS011;43488;46.934;8.276;2022-07-29T09:35:59;707.13;;;458.38;;
57231;SDS011;43488;46.934;8.276;2022-07-29T09:38:35;688.85;;;402.58;;
57231;SDS011;43488;46.934;8.276;2022-07-29T09:41:04;691.97;;;406.55;;
57231;SDS011;43488;46.934;8.276;2022-07-29T09:43:31;696.00;;;419.00;;
57231;SDS011;43488;46.934;8.276;2022-07-29T09:46:12;694.10;;;409.77;;
57231;SDS011;43488;46.934;8.276;2022-07-29T09:48:40;708.80;;;463.83;;
57231;SDS011;43488;46.934;8.276;2022-07-29T09:51:18;708.53;;;464.65;;
57231;SDS011;43488;46.934;8.276;2022-07-29T09:53:46;693.03;;;417.30;;
57231;SDS011;43488;46.934;8.276;2022-07-29T09:56:13;693.45;;;406.10;;
57231;SDS011;43488;46.934;8.276;2022-07-29T09:58:40;689.92;;;407.77;;
57231;SDS011;43488;46.934;8.276;2022-07-29T10:01:08;697.38;;;418.20;;
57231;SDS011;43488;46.934;8.276;2022-07-29T10:03:51;694.80;;;417.42;;
57231;SDS011;43488;46.934;8.276;2022-07-29T10:06:19;705.83;;;455.63;;
57231;SDS011;43488;46.934;8.276;2022-07-29T10:08:46;703.67;;;466.17;;
57231;SDS011;43488;46.934;8.276;2022-07-29T10:11:15;705.50;;;461.77;;
57231;SDS011;43488;46.934;8.276;2022-07-29T10:13:45;690.17;;;415.20;;
57231;SDS011;43488;46.934;8.276;2022-07-29T10:16:14;694.35;;;409.25;;
57231;SDS011;43488;46.934;8.276;2022-07-29T10:18:43;700.03;;;458.77;;
57231;SDS011;43488;46.934;8.276;2022-07-29T10:21:11;691.78;;;413.42;;
57231;SDS011;43488;46.934;8.276;2022-07-29T10:23:39;700.63;;;468.00;;
57231;SDS011;43488;46.934;8.276;2022-07-29T10:26:08;699.97;;;454.92;;
57231;SDS011;43488;46.934;8.276;2022-07-29T10:28:37;692.25;;;408.52;;
57231;SDS011;43488;46.934;8.276;2022-07-29T10:31:05;701.85;;;461.70;;
57231;SDS011;43488;46.934;8.276;2022-07-29T10:36:53;703.33;;;448.25;;
57231;SDS011;43488;46.934;8.276;2022-07-29T10:39:55;686.30;;;395.75;;
57231;SDS011;43488;46.934;8.276;2022-07-29T10:43:21;702.17;;;455.08;;
57231;SDS011;43488;46.934;8.276;2022-07-29T10:45:56;703.28;;;473.27;;
57231;SDS011;43488;46.934;8.276;2022-07-29T10:48:26;686.35;;;395.60;;
57231;SDS011;43488;46.934;8.276;2022-07-29T10:51:00;691.83;;;405.58;;
57231;SDS011;43488;46.934;8.276;2022-07-29T10:53:49;693.67;;;411.02;;
57231;SDS011;43488;46.934;8.276;2022-07-29T10:56:32;701.65;;;455.77;;
57231;SDS011;43488;46.934;8.276;2022-07-29T11:01:50;695.15;;;462.25;;
57231;SDS011;43488;46.934;8.276;2022-07-29T11:07:10;703.38;;;459.83;;
57231;SDS011;43488;46.934;8.276;2022-07-29T11:09:39;694.33;;;402.75;;
57231;SDS011;43488;46.934;8.276;2022-07-29T11:15:05;693.25;;;466.23;;
57231;SDS011;43488;46.934;8.276;2022-07-29T11:20:30;682.40;;;403.00;;
57231;SDS011;43488;46.934;8.276;2022-07-29T11:23:17;683.80;;;403.58;;
57231;SDS011;43488;46.934;8.276;2022-07-29T11:31:46;698.40;;;455.10;;
57231;SDS011;43488;46.934;8.276;2022-07-29T11:34:24;684.13;;;396.65;;
57231;SDS011;43488;46.934;8.276;2022-07-29T11:39:36;692.42;;;451.73;;
57231;SDS011;43488;46.934;8.276;2022-07-29T11:47:36;675.00;;;398.90;;
57231;SDS011;43488;46.934;8.276;2022-07-29T11:50:11;683.50;;;399.85;;
57231;SDS011;43488;46.934;8.276;2022-07-29T11:52:41;680.45;;;389.77;;
57231;SDS011;43488;46.934;8.276;2022-07-29T11:55:15;689.08;;;456.27;;
57231;SDS011;43488;46.934;8.276;2022-07-29T11:57:50;694.20;;;461.42;;
57231;SDS011;43488;46.934;8.276;2022-07-29T12:00:35;680.20;;;391.42;;
57231;SDS011;43488;46.934;8.276;2022-07-29T12:03:10;688.42;;;394.08;;
57231;SDS011;43488;46.934;8.276;2022-07-29T12:05:39;689.78;;;456.70;;
57231;SDS011;43488;46.934;8.276;2022-07-29T12:08:16;689.83;;;451.35;;
57231;SDS011;43488;46.934;8.276;2022-07-29T12:10:46;683.33;;;392.63;;
57231;SDS011;43488;46.934;8.276;2022-07-29T12:13:17;684.17;;;386.50;;
57231;SDS011;43488;46.934;8.276;2022-07-29T12:15:52;694.92;;;453.15;;
57231;SDS011;43488;46.934;8.276;2022-07-29T12:18:22;677.78;;;383.60;;
57231;SDS011;43488;46.934;8.276;2022-07-29T12:20:56;679.42;;;386.55;;
57231;SDS011;43488;46.934;8.276;2022-07-29T12:23:25;685.65;;;385.65;;
57231;SDS011;43488;46.934;8.276;2022-07-29T12:25:52;685.28;;;397.27;;
57231;SDS011;43488;46.934;8.276;2022-07-29T12:28:20;688.42;;;449.20;;
57231;SDS011;43488;46.934;8.276;2022-07-29T12:30:48;678.33;;;384.35;;
57231;SDS011;43488;46.934;8.276;2022-07-29T12:35:54;684.78;;;391.45;;
57231;SDS011;43488;46.934;8.276;2022-07-29T12:40:52;691.20;;;446.23;;
57231;SDS011;43488;46.934;8.276;2022-07-29T12:43:21;689.28;;;446.58;;
57231;SDS011;43488;46.934;8.276;2022-07-29T12:45:51;687.92;;;454.45;;
57231;SDS011;43488;46.934;8.276;2022-07-29T12:48:36;689.95;;;450.80;;
57231;SDS011;43488;46.934;8.276;2022-07-29T12:51:07;677.75;;;387.35;;
57231;SDS011;43488;46.934;8.276;2022-07-29T12:53:36;676.58;;;373.55;;
57231;SDS011;43488;46.934;8.276;2022-07-29T12:56:04;688.67;;;454.83;;
57231;SDS011;43488;46.934;8.276;2022-07-29T12:58:34;687.65;;;449.20;;
57231;SDS011;43488;46.934;8.276;2022-07-29T13:01:17;678.20;;;387.98;;
57231;SDS011;43488;46.934;8.276;2022-07-29T13:06:26;676.25;;;379.02;;
57231;SDS011;43488;46.934;8.276;2022-07-29T13:09:07;676.97;;;380.38;;
57231;SDS011;43488;46.934;8.276;2022-07-29T13:11:38;683.38;;;395.38;;
57231;SDS011;43488;46.934;8.276;2022-07-29T13:14:12;690.63;;;456.67;;
57231;SDS011;43488;46.934;8.276;2022-07-29T13:19:32;689.38;;;453.35;;
57231;SDS011;43488;46.934;8.276;2022-07-29T13:22:04;682.08;;;393.42;;
57231;SDS011;43488;46.934;8.276;2022-07-29T13:24:31;682.35;;;384.13;;
57231;SDS011;43488;46.934;8.276;2022-07-29T13:26:59;688.95;;;455.27;;
57231;SDS011;43488;46.934;8.276;2022-07-29T13:29:27;689.15;;;452.05;;
57231;SDS011;43488;46.934;8.276;2022-07-29T13:31:54;683.45;;;395.00;;
57231;SDS011;43488;46.934;8.276;2022-07-29T13:34:22;675.35;;;379.38;;
57231;SDS011;43488;46.934;8.276;2022-07-29T13:36:50;680.40;;;388.88;;
57231;SDS011;43488;46.934;8.276;2022-07-29T13:39:17;676.03;;;382.60;;
57231;SDS011;43488;46.934;8.276;2022-07-29T13:41:45;685.92;;;453.98;;
57231;SDS011;43488;46.934;8.276;2022-07-29T13:44:12;686.72;;;444.50;;
57231;SDS011;43488;46.934;8.276;2022-07-29T13:46:40;680.45;;;387.13;;
57231;SDS011;43488;46.934;8.276;2022-07-29T13:49:08;687.95;;;453.65;;
57231;SDS011;43488;46.934;8.276;2022-07-29T13:51:35;688.63;;;456.13;;
57231;SDS011;43488;46.934;8.276;2022-07-29T13:54:03;677.30;;;377.98;;
57231;SDS011;43488;46.934;8.276;2022-07-29T13:56:31;688.17;;;448.55;;
57231;SDS011;43488;46.934;8.276;2022-07-29T13:58:59;690.13;;;452.75;;
57231;SDS011;43488;46.934;8.276;2022-07-29T14:01:26;688.75;;;454.25;;
57231;SDS011;43488;46.934;8.276;2022-07-29T14:03:54;689.88;;;447.85;;
57231;SDS011;43488;46.934;8.276;2022-07-29T14:06:21;685.63;;;447.58;;
57231;SDS011;43488;46.934;8.276;2022-07-29T14:08:48;688.25;;;450.88;;
57231;SDS011;43488;46.934;8.276;2022-07-29T14:11:16;678.53;;;387.48;;
57231;SDS011;43488;46.934;8.276;2022-07-29T14:13:43;689.85;;;454.42;;
57231;SDS011;43488;46.934;8.276;2022-07-29T14:16:11;677.75;;;383.85;;
57231;SDS011;43488;46.934;8.276;2022-07-29T14:18:38;684.65;;;389.75;;
57231;SDS011;43488;46.934;8.276;2022-07-29T14:21:06;689.33;;;453.23;;
57231;SDS011;43488;46.934;8.276;2022-07-29T14:23:34;689.70;;;448.83;;
57231;SDS011;43488;46.934;8.276;2022-07-29T14:26:03;690.83;;;453.63;;
57231;SDS011;43488;46.934;8.276;2022-07-29T14:28:30;680.97;;;386.02;;
57231;SDS011;43488;46.934;8.276;2022-07-29T14:30:58;685.63;;;387.30;;
57231;SDS011;43488;46.934;8.276;2022-07-29T14:33:25;693.78;;;448.40;;
57231;SDS011;43488;46.934;8.276;2022-07-29T14:35:52;680.13;;;384.33;;
57231;SDS011;43488;46.934;8.276;2022-07-29T14:38:19;693.13;;;451.85;;
57231;SDS011;43488;46.934;8.276;2022-07-29T14:40:47;681.45;;;386.35;;
57231;SDS011;43488;46.934;8.276;2022-07-29T14:43:14;691.00;;;446.48;;
57231;SDS011;43488;46.934;8.276;2022-07-29T14:45:41;691.83;;;447.48;;
57231;SDS011;43488;46.934;8.276;2022-07-29T14:48:08;688.15;;;386.48;;
57231;SDS011;43488;46.934;8.276;2022-07-29T14:50:37;688.40;;;394.92;;
57231;SDS011;43488;46.934;8.276;2022-07-29T14:53:05;695.35;;;448.33;;
57231;SDS011;43488;46.934;8.276;2022-07-29T14:55:32;680.13;;;380.23;;
57231;SDS011;43488;46.934;8.276;2022-07-29T14:57:59;692.60;;;453.25;;
57231;SDS011;43488;46.934;8.276;2022-07-29T15:00:26;680.55;;;387.13;;
57231;SDS011;43488;46.934;8.276;2022-07-29T15:02:59;691.67;;;443.05;;